Sheridan, WY (82801)

12:45 AM MDT on April 25, 2017 (GMT -0600)
South Sheridan | | Change Station
Active Advisory: Winter Weather Advisory

Elev 3770 ft 44.79 °N, 106.95 °W | Updated 33 seconds ago

Rain
Rain Mist
41.4 °F
Feels Like 41 °F
N
0.0
Wind Variable Wind from WSW
Gusts 0.0 mph

Today
High -- | Low -- °F
--% Chance of Precip.
Yesterday
High -- | Low -- °F
Precip. -- in
Pressure 29.61 in
Visibility 6.0 miles
Clouds Mostly Cloudy 800 ft
Mostly Cloudy 1200 ft
Overcast 2000 ft
Windchill 41 °F
Dew Point 41 °F
Humidity 99%
Rainfall 0.14 in
Snow Depth Not available.
6:06 AM 8:05 PM
Waning Crescent, 2% visible
SPECI KSHR 250636Z AUTO VRB04KT 6SM RA BR BKN008 BKN012 OVC020 04/03 A2961 RMK AO2 P0010 T00440028
Pressure 29.61 in
Visibility 6.0 miles
Clouds Mostly Cloudy 800 ft
Mostly Cloudy 1200 ft
Overcast 2000 ft
Windchill 41 °F
Dew Point 41 °F
Humidity 99%
Rainfall 0.14 in
Snow Depth Not available.
6:06 AM 8:05 PM
Waning Crescent, 2% visible
SPECI KSHR 250636Z AUTO VRB04KT 6SM RA BR BKN008 BKN012 OVC020 04/03 A2961 RMK AO2 P0010 T00440028

Get Your Daily Forecast Email!

Thanks for signing up!

Be on the lookout for a verification email in your inbox.

You'll start receiving severe weather alerts in your inbox..

×

10-Day Weather Forecast

Almanac

Astronomy

Apr. 25, 2017 Rise Set
Actual Time
Civil Twilight
Nautical Twilight
Astronomical Twilight
Moon
Length of Visible Light
Length of Day
Tomorrow will be .
, % of the Moon is Illuminated

Today's Extremes

State Highs State Lows

Community

WunderPhotos

WunderBlog® & News

Nearby

Air Quality

  Air Quality AQ Index Pollutant
Not available.

Snow Depth

Station Depth Elevation

Earthquake Activity

City Distance Mag. Time & Date
Minimum magnitude displayed is 2.5.

Coastal Water Temperatures

Place Temperature

Stations

Nearby Weather Stations

Station Location Temp. Windchill Dew Point Humidity Wind Precip. Elev Updated Type
                   

Watches & Warnings

Winter Weather Advisory
Issued: 8:06 PM MDT Apr. 24, 2017 – National Weather Service

... Winter Weather Advisory remains in effect until 6 PM MDT
Tuesday...

* impacts... heavy, wet snow will make travel conditions difficult
with poor visibility and roads becoming slushy or snow covered.
Downed tree branches and power outages are possible. Young
livestock may be at risk.

* Timing... rain will develop this evening and change to wet
snow overnight. The wet snow will continue through early
Tuesday afternoon.

* Snow accumulation... 3 to 6 inches, with heavier amounts possible
on ridges and higher hills. Greatest amounts will fall south of
Crow Agency, Lame Deer, Broadus and Ekalaka.

* Winds... northeast 10 to 20 mph will reduce visibility and
produce cold wind chills.

Precautionary/preparedness actions...

A Winter Weather Advisory can be issued for a variety of winter
weather conditions such as light snow... blowing snow... sleet...
freezing rain... and extreme wind chills.



Http://weather.Gov/Billings